Flight Track Log - Related Links

Times and Time Zones

All times are in EDT time to prevent confusion due to time zone crossing. See the MPE9136 flight status page for this flight to view local times or setup timezone preferences in your user account.

Time Position Orientation Groundspeed Altitude Reporting Facility
EDT Latitude Longitude Course Direction KTS MPH feet Rate Location/Type
Thu 01:31:55 AM 46.1500 -60.0167 360° North 10 12 200  Level Moncton Center
Thu 01:32:55 AM 46.1667 -60.0167 360° North 70 81 600 1,850 Climbing Moncton Center
Thu 01:33:55 AM 46.1833 -59.9667 64° Northeast 170 196 3,900 3,150 Climbing Moncton Center
Thu 01:34:55 AM 46.2167 -59.8667 64° Northeast 230 265 6,900 3,450 Climbing Moncton Center
Thu 01:35:55 AM 46.2500 -59.7500 68° East 280 322 10,800 2,950 Climbing Moncton Center
Thu 01:36:55 AM 46.2833 -59.6333 68° East 340 391 12,800 2,550 Climbing Moncton Center
Thu 01:37:55 AM 46.3000 -59.4833 81° East 390 449 15,900 3,100 Climbing Moncton Center
Thu 01:38:55 AM 46.3333 -59.3000 75° East 430 495 19,000 3,100 Climbing Moncton Center
Thu 01:39:55 AM 46.3667 -59.1333 74° East 450 518 22,100 3,000 Climbing Moncton Center
Thu 01:40:55 AM 46.4167 -58.9500 68° East 470 541 25,000 2,450 Climbing Moncton Center
Thu 01:41:55 AM 46.4500 -58.7667 75° East 480 552 27,000 2,550 Climbing Moncton Center
Thu 01:42:55 AM 46.5000 -58.5667 70° East 500 575 30,100 2,950 Climbing Moncton Center
Thu 01:43:55 AM 46.5167 -58.3833 82° East 480 552 32,900 1,673 Climbing Moncton Center
Thu 01:44:39 AM 46.5500 -58.2500 70° East 470 541 33,000 58 Climbing Gander Center
Thu 01:45:39 AM 46.5833 -58.0500 76° East 470 541 33,000  Level Gander Center
Thu 01:45:55 AM 46.6000 -58.0167 54° Northeast 480 552 33,000  Level Moncton Center
Thu 01:46:55 AM 46.6333 -57.8333 75° East 480 552 33,000  Level Moncton Center
Thu 01:47:55 AM 46.6667 -57.6667 74° East 470 541 33,000  Level Moncton Center
Thu 01:48:39 AM 46.7000 -57.5167 72° East 480 552 33,000  Level Gander Center
Thu 01:49:39 AM 46.7167 -57.3167 83° East 480 552 33,000  Level Gander Center
Thu 01:49:55 AM 46.7333 -57.2833 54° Northeast 480 552 33,000  Level Moncton Center
Thu 01:51:39 AM 46.8000 -56.9333 74° East 480 552 33,000  Level Gander Center
Thu 01:52:39 AM 46.8333 -56.7667 74° East 490 564 33,000  Level Gander Center
Thu 01:52:55 AM 46.8333 -56.7000 90° East 480 552 33,000  Level Moncton Center
Thu 01:53:55 AM 46.8667 -56.5000 76° East 480 552 33,000  Level Moncton Center
Thu 01:54:55 AM 46.9167 -56.3333 66° East 480 552 33,000  Level Moncton Center
Thu 01:55:55 AM 46.9500 -56.1333 76° East 480 552 33,000  Level Moncton Center
Thu 01:56:55 AM 46.9833 -55.9500 75° East 500 575 33,000  Level Moncton Center
Thu 01:57:39 AM 47.0000 -55.8000 81° East 500 575 33,000  Level Gander Center
Thu 01:58:39 AM 47.0333 -55.6000 76° East 500 575 33,000  Level Gander Center
Thu 01:59:39 AM 47.0667 -55.4000 76° East 500 575 33,000  Level Gander Center
Thu 02:00:39 AM 47.1000 -55.2000 76° East 500 575 33,000  Level Gander Center
Thu 02:01:39 AM 47.1333 -55.0000 76° East 500 575 33,000  Level Gander Center
Thu 02:01:55 AM 47.1333 -54.9333 90° East 500 575 33,000  Level Moncton Center
Thu 02:02:39 AM 47.1500 -54.8000 80° East 500 575 33,000 -58 Level Gander Center
Thu 02:03:39 AM 47.2000 -54.6167 68° East 500 575 32,900 -500 Descending Gander Center
Thu 02:04:39 AM 47.2333 -54.3833 78° East 500 575 32,000 -1,900 Descending Gander Center
Thu 02:05:39 AM 47.2500 -54.1833 83° East 510 587 29,100 -2,050 Descending Gander Center
Thu 02:06:39 AM 47.2833 -53.9833 76° East 510 587 27,900 -2,500 Descending Gander Center
Thu 02:07:39 AM 47.3333 -53.7833 70° East 520 598 24,100 -2,750 Descending Gander Center
Thu 02:08:39 AM 47.3500 -53.6000 82° East 500 575 22,400 -2,053 Descending Gander Center
Thu 02:08:55 AM 47.3667 -53.5333 70° East 480 552 21,500 -3,700 Descending Moncton Center
Thu 02:09:39 AM 47.3833 -53.4000 79° East 440 506 18,700 -3,808 Descending Gander Center
Thu 02:10:39 AM 47.4000 -53.2500 81° East 420 483 14,900 -3,750 Descending Gander Center
Thu 02:11:39 AM 47.4333 -53.0833 73° East 400 460 11,200 -2,350 Descending Gander Center
Thu 02:12:39 AM 47.4500 -52.9500 79° East 370 426 10,200 -1,200 Descending Gander Center
Thu 02:13:39 AM 47.4833 -52.8167 70° East 320 368 8,800 -1,500 Descending Gander Center
Thu 02:14:39 AM 47.5000 -52.7000 78° East 300 345 7,200 -1,650 Descending Gander Center
Thu 02:15:39 AM 47.5000 -52.5833 90° East 300 345 5,500 -1,350 Descending Gander Center
Thu 02:16:39 AM 47.5333 -52.4667 67° East 280 322 4,500 -700 Descending Gander Center
Thu 02:17:39 AM 47.5667 -52.3833 59° Northeast 230 265 4,100 -550 Descending Gander Center
Thu 02:18:39 AM 47.6167 -52.4000 347° North 200 230 3,400 -300 Descending Gander Center
Thu 02:19:39 AM 47.6167 -52.4500 270° West 170 196 3,500 -350 Climbing Gander Center
Thu 02:20:39 AM 47.6167 -52.5167 270° West 160 184 2,700 -750 Descending Gander Center
Thu 02:21:39 AM 47.6000 -52.5667 244° Southwest 150 173 2,000 -700 Descending Gander Center
Thu 02:22:39 AM 47.6167 -52.6167 296° West 120 138 1,300 -700 Descending Gander Center
Thu 02:23:39 AM 47.6167 -52.6667 270° West 120 138 600 -400 Descending Gander Center
Thu 02:24:39 AM 47.6000 -52.7000 233° Southwest 90 104 500 -50 Descending Gander Center
Thu 02:25:39 AM 47.6000 -52.7000 233° Southwest 30 35 500  Level Gander Center

Login

Don't have an account? Register now (free) for customized features, flight alerts, and more!